Time;durP1;ratioP1;P1;durP2;ratioP2;P2;SDS_P1;SDS_P2;PMS_P1;PMS_P2;Temp;Humidity;BMP_temperature;BMP_pressure;BME280_temperature;BME280_humidity;BME280_pressure;Samples;Min_cycle;Max_cycle;Signal;HPM_P1;HPM_P2
2023/04/20 00:00:26;;;;;;;;;;;;;;;6.54;37.72;102994.59;4993218;28;19922;-66
2023/04/20 00:02:52;;;;;;;;;;;;;;;6.57;37.55;102988.28;4993082;28;19914;-67
2023/04/20 00:05:18;;;;;;;;;;;;;;;6.58;37.57;102985.56;4992981;28;19913;-66
2023/04/20 00:07:43;;;;;;;;;;;;;;;6.59;37.43;102989.06;4992902;28;19914;-66
2023/04/20 00:10:09;;;;;;;;;;;;;;;6.57;38.27;102988.28;4992881;28;19914;-66
2023/04/20 00:12:34;;;;;;;;;;;;;;;6.53;37.98;102993.75;4993236;28;19914;-68
2023/04/20 00:15:00;;;;;;;;;;;;;;;6.50;37.42;102991.28;4992891;28;19936;-68
2023/04/20 00:17:25;;;;;;;;;;;;;;;6.43;37.57;102989.91;4992638;28;19917;-67
2023/04/20 00:19:50;;;;;;;;;;;;;;;6.37;37.60;102982.28;4992770;28;20029;-66
2023/04/20 00:22:15;;;;;;;;;;;;;;;6.31;37.42;102981.75;4992617;28;20343;-67
2023/04/20 00:24:41;;;;;;;;;;;;;;;6.24;38.33;102981.22;4993080;28;20352;-67
2023/04/20 00:27:06;;;;;;;;;;;;;;;6.18;38.38;102982.38;4992780;28;20024;-68
2023/04/20 00:29:32;;;;;;;;;;;;;;;6.16;37.92;102972.81;4992468;28;19918;-67
2023/04/20 00:31:57;;;;;;;;;;;;;;;6.14;38.55;102970.25;4992757;28;19964;-65
2023/04/20 00:34:22;;;;;;;;;;;;;;;6.14;38.75;102972.06;4993162;28;20008;-66
2023/04/20 00:36:48;;;;;;;;;;;;;;;6.14;38.52;102972.91;4992627;28;19914;-65
2023/04/20 00:39:13;;;;;;;;;;;;;;;6.18;38.81;102970.94;4992340;28;20257;-66
2023/04/20 00:41:38;;;;;;;;;;;;;;;6.21;38.49;102965.50;4992550;28;20280;-67
2023/04/20 00:44:06;;;;;;;;;;;;;;;6.24;38.91;102959.19;5007709;28;19921;-66
2023/04/20 00:46:31;;;;;;;;;;;;;;;6.28;38.64;102956.28;4992488;28;19921;-67
2023/04/20 00:48:57;;;;;;;;;;;;;;;6.30;38.53;102959.72;4992472;28;19921;-67
2023/04/20 00:51:22;;;;;;;;;;;;;;;6.34;39.28;102961.25;4992593;28;19914;-67
2023/04/20 00:53:47;;;;;;;;;;;;;;;6.39;39.08;102961.03;4992819;28;19914;-68
2023/04/20 00:56:13;;;;;;;;;;;;;;;6.44;39.34;102959.84;4996044;28;19913;-66
2023/04/20 00:58:40;;;;;;;;;;;;;;;6.46;39.09;102960.63;4996176;28;19914;-68
2023/04/20 01:01:06;;;;;;;;;;;;;;;6.50;39.34;102956.88;4996313;28;20408;-66
2023/04/20 01:03:32;;;;;;;;;;;;;;;6.53;39.17;102961.13;4995764;28;19939;-66
2023/04/20 01:05:57;;;;;;;;;;;;;;;6.54;39.21;102957.53;4995811;28;19964;-67
2023/04/20 01:08:26;;;;;;;;;;;;;;;6.53;39.43;102956.69;4995667;28;19913;-67
2023/04/20 01:10:52;;;;;;;;;;;;;;;6.52;39.74;102952.34;4995834;28;19920;-66
2023/04/20 01:13:17;;;;;;;;;;;;;;;6.51;40.14;102957.72;4995806;28;19918;-66
2023/04/20 01:15:42;;;;;;;;;;;;;;;6.51;40.02;102953.28;4995347;28;20465;-66
2023/04/20 01:18:08;;;;;;;;;;;;;;;6.51;40.21;102953.28;4995911;28;19921;-68
2023/04/20 01:20:33;;;;;;;;;;;;;;;6.51;40.69;102955.06;4995520;28;19914;-67
2023/04/20 01:22:59;;;;;;;;;;;;;;;6.50;40.71;102945.41;4995212;28;19914;-65
2023/04/20 01:25:24;;;;;;;;;;;;;;;6.51;40.52;102953.28;4995530;28;19913;-66
2023/04/20 01:27:50;;;;;;;;;;;;;;;6.51;41.12;102947.97;4995705;28;19913;-67
2023/04/20 01:30:16;;;;;;;;;;;;;;;6.52;41.32;102947.03;5001460;28;19977;-66
2023/04/20 01:32:41;;;;;;;;;;;;;;;6.51;41.16;102937.41;5014388;28;19965;-65
2023/04/20 01:35:07;;;;;;;;;;;;;;;6.52;41.53;102944.41;5009200;28;19918;-67
2023/04/20 01:37:32;;;;;;;;;;;;;;;6.52;41.81;102941.75;4995942;28;19968;-66
2023/04/20 01:39:58;;;;;;;;;;;;;;;6.51;42.36;102937.41;4995945;28;19964;-66
2023/04/20 01:42:23;;;;;;;;;;;;;;;6.52;41.64;102935.59;4995732;28;19925;-68
2023/04/20 01:44:48;;;;;;;;;;;;;;;6.53;42.23;102937.31;4995722;28;19918;-65
2023/04/20 01:47:14;;;;;;;;;;;;;;;6.55;41.78;102937.22;4994905;28;20357;-66
2023/04/20 01:49:39;;;;;;;;;;;;;;;6.56;41.45;102933.63;4995099;28;19914;-67
2023/04/20 01:52:05;;;;;;;;;;;;;;;6.58;42.23;102934.41;4994765;28;19936;-67
2023/04/20 01:54:30;;;;;;;;;;;;;;;6.58;41.89;102929.09;4994786;28;19914;-64
2023/04/20 01:56:56;;;;;;;;;;;;;;;6.57;42.90;102932.69;4995602;28;20020;-65
2023/04/20 01:59:22;;;;;;;;;;;;;;;6.56;43.07;102931.00;4994942;28;20012;-67
2023/04/20 02:01:47;;;;;;;;;;;;;;;6.56;42.96;102933.63;4994937;28;20011;-66
2023/04/20 02:04:12;;;;;;;;;;;;;;;6.56;42.95;102929.19;4995484;28;19918;-66
2023/04/20 02:06:37;;;;;;;;;;;;;;;6.55;42.23;102921.34;4994855;28;19914;-67
2023/04/20 02:09:03;;;;;;;;;;;;;;;6.55;41.95;102926.63;4994598;28;20284;-67
2023/04/20 02:11:28;;;;;;;;;;;;;;;6.56;42.24;102923.03;4994534;28;19956;-66
2023/04/20 02:13:54;;;;;;;;;;;;;;;6.55;41.70;102927.50;4994515;28;19921;-66
2023/04/20 02:16:20;;;;;;;;;;;;;;;6.57;41.82;102924.75;4994403;28;20416;-66
2023/04/20 02:18:46;;;;;;;;;;;;;;;6.57;42.38;102922.09;4994448;28;19914;-66
2023/04/20 02:21:11;;;;;;;;;;;;;;;6.58;43.01;102918.53;4994275;28;20444;-67
2023/04/20 02:23:36;;;;;;;;;;;;;;;6.57;42.59;102920.31;4976825;28;19917;-66
2023/04/20 02:26:02;;;;;;;;;;;;;;;6.58;43.45;102910.56;4994405;28;20266;-65
2023/04/20 02:28:27;;;;;;;;;;;;;;;6.56;42.92;102917.75;4994131;28;20284;-68
2023/04/20 02:30:52;;;;;;;;;;;;;;;6.55;43.11;102916.91;4994293;28;19977;-67
2023/04/20 02:33:19;;;;;;;;;;;;;;;6.56;43.08;102917.75;4994294;28;20023;-64
2023/04/20 02:35:45;;;;;;;;;;;;;;;6.57;43.26;102914.16;4993836;28;19914;-64
2023/04/20 02:38:10;;;;;;;;;;;;;;;6.58;42.64;102907.94;4993843;28;20246;-68
2023/04/20 02:40:36;;;;;;;;;;;;;;;6.58;42.74;102905.28;4994405;28;19921;-66
2023/04/20 02:43:01;;;;;;;;;;;;;;;6.58;43.16;102900.00;4993806;28;20377;-65
2023/04/20 02:45:26;;;;;;;;;;;;;;;6.59;42.58;102907.00;4993911;28;19972;-68
2023/04/20 02:47:52;;;;;;;;;;;;;;;6.56;42.32;102901.88;4993933;28;19913;-66
2023/04/20 02:50:17;;;;;;;;;;;;;;;6.55;42.42;102900.16;4993779;28;19922;-66
2023/04/20 02:52:42;;;;;;;;;;;;;;;6.58;42.03;102906.13;4976183;28;19921;-65
2023/04/20 02:55:08;;;;;;;;;;;;;;;6.62;42.61;102905.03;4993524;28;19914;-67
2023/04/20 02:57:33;;;;;;;;;;;;;;;6.65;42.34;102896.06;4993802;28;19921;-68
2023/04/20 02:59:58;;;;;;;;;;;;;;;6.66;42.74;102897.78;4993596;28;20300;-66
2023/04/20 03:02:23;;;;;;;;;;;;;;;6.66;42.16;102893.34;4993380;28;19968;-66
2023/04/20 03:04:49;;;;;;;;;;;;;;;6.70;42.14;102899.34;4993627;28;19975;-67
2023/04/20 03:07:15;;;;;;;;;;;;;;;6.71;42.54;102893.94;4993400;28;20290;-67
2023/04/20 03:09:40;;;;;;;;;;;;;;;6.75;42.66;102895.47;4993538;28;20439;-67
2023/04/20 03:12:05;;;;;;;;;;;;;;;6.79;42.76;102894.38;4993630;28;20175;-66
2023/04/20 03:14:30;;;;;;;;;;;;;;;6.81;43.33;102891.63;4993458;28;19976;-67
2023/04/20 03:16:56;;;;;;;;;;;;;;;6.83;42.67;102893.25;4959964;28;19913;-65
2023/04/20 03:19:21;;;;;;;;;;;;;;;6.85;42.69;102887.84;4975994;28;19920;-66
2023/04/20 03:21:47;;;;;;;;;;;;;;;6.91;43.17;102887.50;4975769;28;19921;-65
2023/04/20 03:24:12;;;;;;;;;;;;;;;7.00;43.15;102887.00;5008456;28;19960;-68
2023/04/20 03:26:37;;;;;;;;;;;;;;;7.06;42.75;102891.94;4993505;28;20012;-66
2023/04/20 03:29:03;;;;;;;;;;;;;;;7.12;43.66;102881.00;4993378;28;19969;-67
2023/04/20 03:31:29;;;;;;;;;;;;;;;7.18;43.93;102886.88;4993105;28;19918;-65
2023/04/20 03:33:54;;;;;;;;;;;;;;;7.20;44.42;102883.19;4993626;28;20265;-67
2023/04/20 03:36:19;;;;;;;;;;;;;;;7.29;43.69;102887.13;4992959;28;19953;-66
2023/04/20 03:38:45;;;;;;;;;;;;;;;7.46;43.57;102886.97;4993083;28;19953;-64
2023/04/20 03:41:10;;;;;;;;;;;;;;;7.70;42.27;102884.66;4993100;28;19914;-66
2023/04/20 03:43:36;;;;;;;;;;;;;;;7.96;41.86;102877.78;4993291;28;20396;-67
2023/04/20 03:46:01;;;;;;;;;;;;;;;8.23;41.38;102881.38;4992930;28;20222;-65
2023/04/20 03:48:26;;;;;;;;;;;;;;;8.51;41.03;102880.53;4993023;28;20314;-68
2023/04/20 03:50:52;;;;;;;;;;;;;;;8.77;39.71;102878.84;4993189;28;20331;-67
2023/04/20 03:53:17;;;;;;;;;;;;;;;9.11;40.21;102879.31;4993486;28;19918;-67
2023/04/20 03:55:43;;;;;;;;;;;;;;;9.35;39.57;102877.66;4976454;28;19921;-66
2023/04/20 03:58:08;;;;;;;;;;;;;;;9.34;39.33;102875.13;4993885;28;19913;-68
2023/04/20 04:00:33;;;;;;;;;;;;;;;9.32;39.52;102872.56;4993647;28;19914;-67
2023/04/20 04:02:59;;;;;;;;;;;;;;;9.11;39.06;102874.84;4993362;28;19913;-66
2023/04/20 04:05:24;;;;;;;;;;;;;;;8.77;39.90;102875.34;4992972;28;20001;-66
2023/04/20 04:07:50;;;;;;;;;;;;;;;8.38;40.25;102872.50;4992944;28;19920;-67
2023/04/20 04:10:17;;;;;;;;;;;;;;;8.12;40.36;102865.28;4992726;28;19913;-66
2023/04/20 04:12:43;;;;;;;;;;;;;;;7.93;40.49;102868.19;4992945;28;19965;-67
2023/04/20 04:15:09;;;;;;;;;;;;;;;7.75;40.90;102875.47;4993142;28;19977;-67
2023/04/20 04:17:34;;;;;;;;;;;;;;;7.59;41.32;102863.25;4992984;28;20451;-67
2023/04/20 04:19:59;;;;;;;;;;;;;;;7.45;42.09;102869.34;4992748;28;19914;-67
2023/04/20 04:22:25;;;;;;;;;;;;;;;7.32;42.37;102863.94;4992750;28;19913;-67
2023/04/20 04:24:50;;;;;;;;;;;;;;;7.19;43.58;102870.03;4994532;28;19917;-69
2023/04/20 04:27:16;;;;;;;;;;;;;;;7.06;43.23;102864.59;4994552;28;20409;-68
2023/04/20 04:29:43;;;;;;;;;;;;;;;6.94;43.75;102866.16;4995739;28;19925;-67
2023/04/20 04:32:10;;;;;;;;;;;;;;;6.87;43.22;102872.72;4997685;28;19964;-66
2023/04/20 04:34:36;;;;;;;;;;;;;;;6.82;43.93;102867.69;4996347;28;19953;-67
2023/04/20 04:37:01;;;;;;;;;;;;;;;6.77;43.46;102874.22;4996396;28;19961;-68
2023/04/20 04:39:27;;;;;;;;;;;;;;;6.79;43.11;102877.63;5014616;28;19918;-67
2023/04/20 04:41:52;;;;;;;;;;;;;;;6.82;42.68;102866.84;5018187;28;19913;-67
2023/04/20 04:44:18;;;;;;;;;;;;;;;6.83;42.85;102866.75;4981194;28;19918;-67
2023/04/20 04:46:44;;;;;;;;;;;;;;;6.85;43.02;102871.97;4997479;28;20255;-68
2023/04/20 04:49:10;;;;;;;;;;;;;;;6.88;43.02;102868.28;4996280;28;19913;-70
2023/04/20 04:51:35;;;;;;;;;;;;;;;6.91;42.62;102876.06;4996199;28;19920;-71
2023/04/20 04:54:01;;;;;;;;;;;;;;;6.94;42.63;102866.16;4996854;28;20008;-69
2023/04/20 04:56:27;;;;;;;;;;;;;;;6.96;42.97;102868.72;4996549;28;20330;-69
2023/04/20 04:58:52;;;;;;;;;;;;;;;7.01;42.58;102864.88;4995713;28;19923;-67
2023/04/20 05:01:18;;;;;;;;;;;;;;;7.12;42.02;102866.88;4995857;28;19914;-69
2023/04/20 05:03:43;;;;;;;;;;;;;;;7.24;42.59;102868.00;4995843;28;19914;-67
2023/04/20 05:06:08;;;;;;;;;;;;;;;7.34;43.09;102864.69;4995833;28;19968;-67
2023/04/20 05:08:34;;;;;;;;;;;;;;;7.46;42.61;102858.66;4995520;28;19914;-66
2023/04/20 05:10:59;;;;;;;;;;;;;;;7.56;42.37;102864.28;4994589;28;19914;-66
2023/04/20 05:13:25;;;;;;;;;;;;;;;7.63;42.15;102855.00;4996061;28;19965;-65
2023/04/20 05:15:50;;;;;;;;;;;;;;;7.74;41.75;102857.84;4995738;28;19976;-67
2023/04/20 05:18:15;;;;;;;;;;;;;;;7.83;41.65;102851.16;4995482;28;19914;-68
2023/04/20 05:20:41;;;;;;;;;;;;;;;7.96;42.03;102844.13;4994941;28;19983;-66
2023/04/20 05:23:06;;;;;;;;;;;;;;;8.10;42.22;102848.59;4995002;28;20274;-69
2023/04/20 05:25:41;;;;;;;;;;;;;;;8.14;41.95;102820.91;4995236;28;19953;-68
2023/04/20 05:28:06;;;;;;;;;;;;;;;8.43;41.71;102847.44;4995542;28;19936;-67
2023/04/20 05:30:32;;;;;;;;;;;;;;;8.66;41.56;102850.31;4994999;28;20365;-69
2023/04/20 05:32:57;;;;;;;;;;;;;;;8.97;40.74;102841.22;4978278;28;19928;-69
2023/04/20 05:35:23;;;;;;;;;;;;;;;9.17;40.42;102847.00;4995279;28;19917;-68
2023/04/20 05:37:48;;;;;;;;;;;;;;;9.29;40.70;102843.53;4977570;28;20301;-66
2023/04/20 05:40:14;;;;;;;;;;;;;;;9.44;39.91;102839.81;4994583;28;19914;-71
2023/04/20 05:42:40;;;;;;;;;;;;;;;9.52;39.05;102834.81;4994944;28;19958;-68
2023/04/20 05:45:05;;;;;;;;;;;;;;;9.53;39.52;102827.69;4995072;28;19917;-68
2023/04/20 05:47:31;;;;;;;;;;;;;;;9.51;39.46;102832.25;4995205;28;19914;-68
2023/04/20 05:49:56;;;;;;;;;;;;;;;9.46;39.76;102835.22;4977529;28;19914;-68
2023/04/20 05:52:21;;;;;;;;;;;;;;;9.43;39.66;102832.78;4994646;28;19913;-68
2023/04/20 05:54:48;;;;;;;;;;;;;;;9.48;39.42;102829.81;4961060;28;19964;-71
2023/04/20 05:57:14;;;;;;;;;;;;;;;9.54;39.31;102826.72;4977182;28;20303;-69
2023/04/20 05:59:39;;;;;;;;;;;;;;;9.68;39.41;102823.13;4994622;28;19945;-68
2023/04/20 06:02:05;;;;;;;;;;;;;;;9.94;39.46;102827.47;4994808;28;19914;-66
2023/04/20 06:04:30;;;;;;;;;;;;;;;10.15;38.97;102820.63;4995100;28;20246;-65
2023/04/20 06:06:55;;;;;;;;;;;;;;;10.22;37.93;102821.06;4994685;28;20020;-67
2023/04/20 06:09:21;;;;;;;;;;;;;;;9.98;38.89;102820.97;4994764;28;19914;-67
2023/04/20 06:11:46;;;;;;;;;;;;;;;9.80;39.45;102823.09;4994613;28;19953;-67
2023/04/20 06:14:13;;;;;;;;;;;;;;;9.66;39.64;102822.38;4994213;28;19914;-65
2023/04/20 06:16:38;;;;;;;;;;;;;;;9.46;40.05;102819.28;4994242;28;19914;-68
2023/04/20 06:19:04;;;;;;;;;;;;;;;9.39;39.02;102812.69;4994707;28;20302;-66
2023/04/20 06:21:30;;;;;;;;;;;;;;;9.38;40.24;102815.44;4994919;28;19972;-67
2023/04/20 06:23:56;;;;;;;;;;;;;;;9.32;39.92;102808.75;4960707;28;19913;-68
2023/04/20 06:26:22;;;;;;;;;;;;;;;9.35;39.87;102811.19;4994238;28;19921;-66
2023/04/20 06:28:47;;;;;;;;;;;;;;;9.50;40.40;102811.94;4992754;28;19972;-65
2023/04/20 06:31:13;;;;;;;;;;;;;;;9.63;40.23;102807.50;4992688;28;19925;-67
2023/04/20 06:33:38;;;;;;;;;;;;;;;9.72;40.56;102800.66;4994511;28;19969;-67
2023/04/20 06:36:07;;;;;;;;;;;;;;;9.81;40.24;102800.00;4974769;28;19922;-66
2023/04/20 06:38:32;;;;;;;;;;;;;;;9.82;40.60;102807.88;4993066;28;19914;-68
2023/04/20 06:41:00;;;;;;;;;;;;;;;9.81;39.98;102789.38;4993966;28;20496;-66
2023/04/20 06:43:26;;;;;;;;;;;;;;;9.88;39.92;102785.34;4993788;28;20361;-67
2023/04/20 06:45:52;;;;;;;;;;;;;;;10.06;39.96;102784.00;4976359;28;19918;-66
2023/04/20 06:48:17;;;;;;;;;;;;;;;10.15;41.20;102790.50;5008822;28;19913;-67
2023/04/20 06:50:43;;;;;;;;;;;;;;;10.33;40.93;102783.84;4994283;28;19914;-67
2023/04/20 06:53:08;;;;;;;;;;;;;;;10.53;40.29;102782.41;4975696;28;19976;-67
2023/04/20 06:55:33;;;;;;;;;;;;;;;10.78;40.55;102781.44;4993737;28;20428;-66
2023/04/20 06:57:59;;;;;;;;;;;;;;;11.16;39.60;102774.03;4993384;28;20262;-70
2023/04/20 07:00:27;;;;;;;;;;;;;;;11.60;39.04;102760.91;4993772;28;20424;-66
2023/04/20 07:02:52;;;;;;;;;;;;;;;11.87;38.11;102768.59;5011942;28;19920;-68
2023/04/20 07:05:18;;;;;;;;;;;;;;;12.10;37.84;102772.91;5014224;28;19922;-68
2023/04/20 07:07:43;;;;;;;;;;;;;;;12.10;37.69;102765.75;5013691;28;19953;-69
2023/04/20 07:10:11;;;;;;;;;;;;;;;12.14;37.82;102762.81;5012953;28;19915;-70
2023/04/20 07:12:38;;;;;;;;;;;;;;;12.22;37.27;102760.41;5012391;28;19913;-67
2023/04/20 07:15:04;;;;;;;;;;;;;;;12.13;36.93;102761.13;4995073;28;20327;-68
2023/04/20 07:17:30;;;;;;;;;;;;;;;11.99;37.52;102768.44;5012378;28;20024;-68
2023/04/20 07:20:24;;;;;;;;;;;;;;;11.82;37.28;102773.41;4979966;28;20012;-67
2023/04/20 07:22:50;;;;;;;;;;;;;;;11.53;37.97;102767.69;5005364;28;20404;-67
2023/04/20 07:25:16;;;;;;;;;;;;;;;11.48;38.44;102760.88;4994720;28;20003;-68
2023/04/20 07:27:42;;;;;;;;;;;;;;;11.53;38.57;102765.84;5012265;28;19914;-66
2023/04/20 07:30:10;;;;;;;;;;;;;;;11.56;38.06;102762.94;5011332;28;20010;-67
2023/04/20 07:32:37;;;;;;;;;;;;;;;11.54;38.43;102769.38;5012552;28;19953;-66
2023/04/20 07:35:02;;;;;;;;;;;;;;;11.64;38.26;102759.69;5013353;28;19959;-67
2023/04/20 07:37:28;;;;;;;;;;;;;;;11.63;37.85;102769.53;5012416;28;19980;-67
2023/04/20 07:39:54;;;;;;;;;;;;;;;11.74;37.68;102760.66;5012566;28;19914;-65
2023/04/20 07:42:20;;;;;;;;;;;;;;;11.87;37.14;102749.91;5011424;28;20341;-67
2023/04/20 07:44:45;;;;;;;;;;;;;;;12.08;37.56;102754.34;5021252;28;19920;-66
2023/04/20 07:47:11;;;;;;;;;;;;;;;12.06;37.26;102756.28;5030671;28;19918;-67
2023/04/20 07:49:39;;;;;;;;;;;;;;;12.09;37.47;102749.84;5004175;28;19914;-67
2023/04/20 07:52:05;;;;;;;;;;;;;;;11.90;38.02;102750.50;5013029;28;20021;-68
2023/04/20 07:54:31;;;;;;;;;;;;;;;11.70;38.37;102746.72;4979305;28;19953;-67
2023/04/20 07:56:57;;;;;;;;;;;;;;;11.63;39.01;102744.66;5013199;28;19914;-67
2023/04/20 07:59:22;;;;;;;;;;;;;;;11.74;39.11;102744.63;4994917;28;19913;-67
2023/04/20 08:01:48;;;;;;;;;;;;;;;11.86;38.54;102738.38;4980938;28;19950;-67
2023/04/20 08:04:13;;;;;;;;;;;;;;;11.97;38.63;102741.03;4995237;28;19918;-68
2023/04/20 08:06:38;;;;;;;;;;;;;;;12.00;38.28;102739.91;4996948;28;19914;-67
2023/04/20 08:09:04;;;;;;;;;;;;;;;11.97;38.60;102729.50;4996667;28;20376;-68
2023/04/20 08:11:29;;;;;;;;;;;;;;;12.15;38.32;102737.84;4995214;28;20365;-68
2023/04/20 08:13:56;;;;;;;;;;;;;;;12.19;38.29;102723.25;4994999;28;20481;-69
2023/04/20 08:16:21;;;;;;;;;;;;;;;12.01;38.53;102725.59;4967543;28;19918;-68
2023/04/20 08:18:46;;;;;;;;;;;;;;;11.88;38.75;102717.75;4986771;28;19918;-69
2023/04/20 08:21:12;;;;;;;;;;;;;;;11.96;38.53;102727.78;4987480;28;19914;-68
2023/04/20 08:23:37;;;;;;;;;;;;;;;12.04;38.27;102720.00;4986020;28;20309;-69
2023/04/20 08:26:03;;;;;;;;;;;;;;;12.06;38.48;102718.91;4987755;28;19938;-69
2023/04/20 08:28:32;;;;;;;;;;;;;;;11.98;38.24;102715.16;4968657;28;19937;-66
2023/04/20 08:30:59;;;;;;;;;;;;;;;12.14;38.36;102712.06;4987913;28;19918;-68
2023/04/20 08:33:25;;;;;;;;;;;;;;;12.14;38.21;102722.75;4985737;28;20278;-73
2023/04/20 08:36:06;;;;;;;;;;;;;;;12.00;38.60;102719.41;4959284;28;19918;-69
2023/04/20 08:38:31;;;;;;;;;;;;;;;11.75;39.17;102719.66;4959454;28;19914;-67
2023/04/20 08:40:57;;;;;;;;;;;;;;;11.71;39.46;102719.03;4977028;28;19981;-69
2023/04/20 08:43:22;;;;;;;;;;;;;;;11.70;39.31;102716.50;4978643;28;20742;-68
2023/04/20 08:45:51;;;;;;;;;;;;;;;11.66;38.98;102715.03;4982844;28;19918;-67
2023/04/20 08:48:19;;;;;;;;;;;;;;;11.68;38.75;102718.44;4990771;28;19918;-70
2023/04/20 08:50:45;;;;;;;;;;;;;;;11.72;38.58;102709.22;4987557;28;19918;-67
2023/04/20 08:53:10;;;;;;;;;;;;;;;11.75;38.59;102706.28;4988742;28;19922;-67
2023/04/20 08:55:36;;;;;;;;;;;;;;;11.73;38.44;102700.22;4982995;28;20269;-70
2023/04/20 08:58:01;;;;;;;;;;;;;;;11.79;38.27;102705.97;4948455;28;19914;-68
2023/04/20 09:00:27;;;;;;;;;;;;;;;11.72;38.32;102695.88;4989517;28;20041;-68
2023/04/20 09:02:53;;;;;;;;;;;;;;;11.66;38.19;102696.38;4990088;28;19921;-69
2023/04/20 09:05:26;;;;;;;;;;;;;;;11.68;37.90;102686.41;4984568;28;19972;-69
2023/04/20 09:07:52;;;;;;;;;;;;;;;11.65;38.42;102700.00;4988583;28;19920;-67
2023/04/20 09:10:22;;;;;;;;;;;;;;;11.75;38.04;102687.63;4986647;28;20013;-69
2023/04/20 09:12:48;;;;;;;;;;;;;;;11.87;37.89;102697.34;4986991;28;19917;-68
2023/04/20 09:15:23;;;;;;;;;;;;;;;11.88;37.67;102690.19;4987829;28;20338;-67
2023/04/20 09:17:48;;;;;;;;;;;;;;;11.72;37.80;102687.84;4988970;28;19943;-65
2023/04/20 09:20:13;;;;;;;;;;;;;;;11.73;37.81;102690.41;4989269;28;20272;-68
2023/04/20 09:22:40;;;;;;;;;;;;;;;11.61;38.07;102691.41;4983879;28;20324;-66
2023/04/20 09:25:12;;;;;;;;;;;;;;;11.60;37.82;102683.53;4984753;28;19914;-67
2023/04/20 09:27:37;;;;;;;;;;;;;;;11.65;37.69;102681.31;4986938;28;19917;-67
2023/04/20 09:30:04;;;;;;;;;;;;;;;11.52;37.76;102678.78;4986796;28;20013;-68
2023/04/20 09:32:34;;;;;;;;;;;;;;;11.36;38.43;102670.31;4984400;28;21350;-65
2023/04/20 09:35:00;;;;;;;;;;;;;;;11.44;38.46;102667.88;4983924;28;20001;-66
2023/04/20 09:37:25;;;;;;;;;;;;;;;11.56;38.42;102663.34;4987106;28;20341;-68
2023/04/20 09:39:54;;;;;;;;;;;;;;;11.72;37.75;102670.03;4981666;28;19929;-66
2023/04/20 09:42:20;;;;;;;;;;;;;;;11.89;37.64;102666.03;4981461;28;19926;-67
2023/04/20 09:44:45;;;;;;;;;;;;;;;11.98;37.43;102659.94;4980492;28;20459;-67
2023/04/20 09:47:17;;;;;;;;;;;;;;;12.08;37.13;102660.03;4980103;28;20017;-66
2023/04/20 09:49:44;;;;;;;;;;;;;;;11.95;37.40;102659.34;4983815;28;20016;-66
2023/04/20 09:52:10;;;;;;;;;;;;;;;11.88;37.85;102656.34;4984677;28;19920;-67
2023/04/20 09:54:36;;;;;;;;;;;;;;;11.96;37.73;102653.03;4985422;28;19918;-68
2023/04/20 09:57:02;;;;;;;;;;;;;;;12.23;37.61;102657.91;4982227;28;20820;-66
2023/04/20 09:59:28;;;;;;;;;;;;;;;12.39;37.22;102644.97;4968802;28;19918;-66
2023/04/20 10:01:54;;;;;;;;;;;;;;;12.59;37.05;102638.78;4986178;28;20377;-66
2023/04/20 10:04:19;;;;;;;;;;;;;;;12.94;36.83;102635.78;4987971;28;20008;-66
2023/04/20 10:06:52;;;;;;;;;;;;;;;13.12;36.75;102628.00;4979773;28;19914;-67
2023/04/20 10:09:23;;;;;;;;;;;;;;;13.24;36.53;102632.28;4966737;28;20238;-68
2023/04/20 10:11:48;;;;;;;;;;;;;;;13.25;34.42;102628.63;4989850;28;20064;-67
2023/04/20 10:14:18;;;;;;;;;;;;;;;13.20;33.32;102620.16;4968912;28;20049;-67
2023/04/20 10:16:45;;;;;;;;;;;;;;;13.28;32.89;102617.66;4984667;28;19967;-68
2023/04/20 10:19:11;;;;;;;;;;;;;;;13.25;32.58;102620.59;4988019;28;19925;-67
2023/04/20 10:21:46;;;;;;;;;;;;;;;13.29;33.08;102623.84;4985968;28;19914;-67
2023/04/20 10:24:11;;;;;;;;;;;;;;;13.29;33.06;102619.34;4985407;28;19952;-68
2023/04/20 10:26:44;;;;;;;;;;;;;;;13.30;33.60;102620.22;4984026;28;19965;-68
2023/04/20 10:29:10;;;;;;;;;;;;;;;13.33;33.78;102614.59;4985993;28;19918;-67
2023/04/20 10:31:36;;;;;;;;;;;;;;;13.42;34.09;102611.09;4993953;28;20289;-67
2023/04/20 10:34:01;;;;;;;;;;;;;;;13.52;34.35;102613.78;4994124;28;19914;-67
2023/04/20 10:36:29;;;;;;;;;;;;;;;13.28;34.40;102614.97;4976401;28;19914;-69
2023/04/20 10:38:55;;;;;;;;;;;;;;;13.03;34.94;102607.41;4974826;28;19918;-69
2023/04/20 10:41:21;;;;;;;;;;;;;;;12.90;35.17;102601.41;4941796;28;20014;-69
2023/04/20 10:43:47;;;;;;;;;;;;;;;13.20;35.31;102598.75;4991582;28;19949;-71
2023/04/20 10:46:16;;;;;;;;;;;;;;;13.48;34.73;102599.84;4958113;28;19914;-69
2023/04/20 10:48:55;;;;;;;;;;;;;;;13.79;34.38;102597.94;4974314;28;20011;-71
2023/04/20 10:51:21;;;;;;;;;;;;;;;14.07;34.21;102593.56;4957454;28;19914;-69
2023/04/20 10:53:56;;;;;;;;;;;;;;;14.15;33.90;102595.53;4991710;28;19957;-66
2023/04/20 10:56:21;;;;;;;;;;;;;;;14.13;34.30;102592.16;4993366;28;19914;-66
2023/04/20 10:58:47;;;;;;;;;;;;;;;13.99;33.69;102588.09;4979331;28;20342;-69
2023/04/20 11:01:13;;;;;;;;;;;;;;;14.01;34.40;102588.78;4974420;28;19921;-69
2023/04/20 11:03:38;;;;;;;;;;;;;;;14.12;33.94;102585.97;4989029;28;19944;-68
2023/04/20 11:06:04;;;;;;;;;;;;;;;14.11;32.92;102583.41;4973845;28;20309;-68
2023/04/20 11:08:39;;;;;;;;;;;;;;;13.93;33.86;102569.91;4973889;28;20297;-68
2023/04/20 11:11:06;;;;;;;;;;;;;;;13.96;33.99;102577.66;4974121;28;19983;-66
2023/04/20 11:13:31;;;;;;;;;;;;;;;13.89;34.48;102577.38;4973967;28;20312;-67
2023/04/20 11:15:57;;;;;;;;;;;;;;;13.83;33.19;102575.22;4973885;28;19914;-69
2023/04/20 11:18:23;;;;;;;;;;;;;;;13.74;33.45;102573.41;4973968;28;20400;-67
2023/04/20 11:20:48;;;;;;;;;;;;;;;13.50;33.15;102567.56;4973964;28;19918;-67
2023/04/20 11:23:14;;;;;;;;;;;;;;;13.33;32.93;102572.63;4973807;28;19921;-66
2023/04/20 11:25:47;;;;;;;;;;;;;;;13.18;33.39;102568.63;4974163;28;19914;-68
2023/04/20 11:28:14;;;;;;;;;;;;;;;13.18;33.49;102565.94;4974118;28;20013;-69
2023/04/20 11:30:40;;;;;;;;;;;;;;;13.11;33.45;102570.13;4974058;28;19918;-68
2023/04/20 11:33:05;;;;;;;;;;;;;;;13.03;33.82;102569.97;4973745;28;19914;-69
2023/04/20 11:35:41;;;;;;;;;;;;;;;12.92;33.39;102562.84;4956219;28;19922;-70
2023/04/20 11:38:07;;;;;;;;;;;;;;;12.81;33.73;102562.94;4955681;28;19964;-70
2023/04/20 11:40:33;;;;;;;;;;;;;;;12.76;33.97;102556.31;4940474;28;19914;-67
2023/04/20 11:43:03;;;;;;;;;;;;;;;12.62;34.08;102558.34;4973850;28;19918;-67
2023/04/20 11:45:31;;;;;;;;;;;;;;;12.49;34.33;102556.88;4980941;28;19964;-68
2023/04/20 11:47:57;;;;;;;;;;;;;;;12.48;34.39;102548.00;4956422;28;19925;-69
2023/04/20 11:50:22;;;;;;;;;;;;;;;12.55;34.48;102549.16;4967109;28;19946;-69
2023/04/20 11:52:48;;;;;;;;;;;;;;;12.59;34.83;102544.41;4948390;28;20004;-67
2023/04/20 11:55:14;;;;;;;;;;;;;;;12.62;34.65;102542.31;4974713;28;19914;-68
2023/04/20 11:57:39;;;;;;;;;;;;;;;12.30;34.77;102546.88;4952299;28;19914;-66
2023/04/20 12:00:06;;;;;;;;;;;;;;;12.15;35.45;102540.19;4986454;28;19920;-66
2023/04/20 12:02:31;;;;;;;;;;;;;;;11.95;35.62;102540.03;4982012;28;19918;-67
2023/04/20 12:04:56;;;;;;;;;;;;;;;11.76;35.81;102524.66;4985097;28;20273;-68
2023/04/20 12:07:22;;;;;;;;;;;;;;;11.59;36.52;102530.56;4984425;28;19960;-68
2023/04/20 12:09:47;;;;;;;;;;;;;;;11.60;36.75;102537.59;4986005;28;19914;-67
2023/04/20 12:12:13;;;;;;;;;;;;;;;11.58;36.57;102534.19;4985384;28;19937;-69
2023/04/20 12:14:38;;;;;;;;;;;;;;;11.66;36.97;102522.88;4983942;28;19914;-68
2023/04/20 12:17:03;;;;;;;;;;;;;;;11.69;37.93;102528.81;4968725;28;19914;-68
2023/04/20 12:19:29;;;;;;;;;;;;;;;11.69;38.83;102527.97;4982764;28;19914;-68
2023/04/20 12:21:54;;;;;;;;;;;;;;;11.57;38.96;102535.19;4982303;28;19995;-67
2023/04/20 12:24:20;;;;;;;;;;;;;;;11.24;40.18;102537.91;4982335;28;19922;-67
2023/04/20 12:26:45;;;;;;;;;;;;;;;11.00;40.59;102527.41;4987639;28;19914;-67
2023/04/20 12:29:11;;;;;;;;;;;;;;;10.88;41.54;102528.34;4982334;28;20321;-68
2023/04/20 12:31:42;;;;;;;;;;;;;;;10.89;41.24;102522.06;4984219;28;19918;-69
2023/04/20 12:34:07;;;;;;;;;;;;;;;11.00;42.43;102514.06;4999342;28;19925;-68
2023/04/20 12:36:33;;;;;;;;;;;;;;;11.06;42.50;102518.91;4998766;28;19915;-66